createdAt,value
2017-09-06T00:00:35.693Z,0
2017-09-06T00:01:44.667Z,0
2017-09-06T00:02:54.587Z,0
2017-09-06T00:04:03.557Z,0
2017-09-06T00:05:12.542Z,0
2017-09-06T00:06:21.208Z,0
2017-09-06T00:07:30.173Z,0
2017-09-06T00:08:39.779Z,0
2017-09-06T00:09:48.746Z,0
2017-09-06T00:10:58.036Z,0
2017-09-06T00:12:07.339Z,0
2017-09-06T00:13:16.323Z,0
2017-09-06T00:14:25.298Z,0
2017-09-06T00:15:33.944Z,0
2017-09-06T00:16:43.235Z,0
2017-09-06T00:17:52.194Z,0
2017-09-06T00:19:00.859Z,0
2017-09-06T00:20:09.524Z,0
2017-09-06T00:21:18.792Z,0
2017-09-06T00:22:27.443Z,0
2017-09-06T00:23:36.450Z,0
2017-09-06T00:24:45.432Z,0
2017-09-06T00:25:54.416Z,0
2017-09-06T00:27:03.997Z,0
2017-09-06T00:28:12.978Z,0
2017-09-06T00:29:21.647Z,0
2017-09-06T00:30:30.296Z,0
2017-09-06T00:31:39.579Z,0
2017-09-06T00:32:48.555Z,0
2017-09-06T00:33:57.204Z,0
2017-09-06T00:35:06.171Z,0
2017-09-06T00:36:15.783Z,0
2017-09-06T00:37:24.742Z,0
2017-09-06T00:38:33.420Z,0
2017-09-06T00:39:42.712Z,0
2017-09-06T00:40:52.006Z,0
2017-09-06T00:42:01.612Z,0
2017-09-06T00:43:10.601Z,0
2017-09-06T00:44:19.568Z,0
2017-09-06T00:45:28.844Z,0
2017-09-06T00:46:38.142Z,0
2017-09-06T00:47:47.758Z,0
2017-09-06T00:48:56.732Z,0
2017-09-06T00:50:05.700Z,0
2017-09-06T00:51:15.006Z,0
2017-09-06T00:52:24.322Z,0
2017-09-06T00:53:33.323Z,0
2017-09-06T00:54:42.606Z,0
2017-09-06T00:55:51.268Z,0
2017-09-06T00:57:00.236Z,0
2017-09-06T00:58:09.530Z,0
2017-09-06T00:59:18.504Z,0
2017-09-06T01:00:27.778Z,0
2017-09-06T01:01:37.389Z,0
2017-09-06T01:02:46.043Z,0
2017-09-06T01:03:55.004Z,0
2017-09-06T01:05:04.010Z,0
2017-09-06T01:06:12.992Z,0
2017-09-06T01:07:22.268Z,0
2017-09-06T01:08:30.922Z,0
2017-09-06T01:09:40.518Z,0
2017-09-06T01:10:49.490Z,0
2017-09-06T01:11:58.484Z,0
2017-09-06T01:13:08.092Z,0
2017-09-06T01:14:16.746Z,0
2017-09-06T01:15:25.727Z,0
2017-09-06T01:16:34.378Z,0
2017-09-06T01:17:43.680Z,0
2017-09-06T01:18:52.659Z,0
2017-09-06T01:20:02.263Z,0
2017-09-06T01:21:11.233Z,0
2017-09-06T01:22:20.858Z,0
2017-09-06T01:23:30.456Z,0
2017-09-06T01:24:39.451Z,0
2017-09-06T01:25:48.716Z,0
2017-09-06T01:26:57.370Z,0
2017-09-06T01:28:07.283Z,0
2017-09-06T01:29:16.554Z,0
2017-09-06T01:30:25.217Z,0
2017-09-06T01:31:34.180Z,0
2017-09-06T01:32:42.829Z,0
2017-09-06T01:33:51.796Z,0
2017-09-06T01:35:01.408Z,0
2017-09-06T01:36:10.066Z,0
2017-09-06T01:37:18.735Z,0
2017-09-06T01:38:27.416Z,0
2017-09-06T01:39:36.392Z,0
2017-09-06T01:40:45.412Z,0
2017-09-06T01:41:54.392Z,0
2017-09-06T01:43:03.060Z,0
2017-09-06T01:44:12.388Z,0
2017-09-06T01:45:21.667Z,0
2017-09-06T01:46:30.946Z,0
2017-09-06T01:47:39.911Z,0
2017-09-06T01:48:49.517Z,0
2017-09-06T01:49:58.473Z,0
2017-09-06T01:51:07.437Z,0
2017-09-06T01:52:16.094Z,0
2017-09-06T01:53:25.392Z,0
2017-09-06T01:54:34.679Z,0
2017-09-06T01:55:43.962Z,0
2017-09-06T01:56:52.932Z,0
2017-09-06T01:58:01.909Z,0
2017-09-06T01:59:10.874Z,0
2017-09-06T02:00:20.160Z,0
2017-09-06T02:01:28.809Z,0
2017-09-06T02:02:37.476Z,0
2017-09-06T02:03:46.135Z,0
2017-09-06T02:04:55.427Z,0
2017-09-06T02:06:04.396Z,0
2017-09-06T02:07:13.698Z,0
2017-09-06T02:08:22.345Z,0
2017-09-06T02:09:31.014Z,0
2017-09-06T02:10:40.324Z,0
2017-09-06T02:11:49.293Z,0
2017-09-06T02:12:57.944Z,0
2017-09-06T02:14:07.541Z,0
2017-09-06T02:15:16.824Z,0
2017-09-06T02:16:25.791Z,0
2017-09-06T02:17:34.434Z,0
2017-09-06T02:18:43.418Z,0
2017-09-06T02:19:52.380Z,0
2017-09-06T02:21:01.675Z,0
2017-09-06T02:22:10.648Z,0
2017-09-06T02:23:19.932Z,0
2017-09-06T02:24:29.532Z,0
2017-09-06T02:25:38.500Z,0
2017-09-06T02:26:47.801Z,0
2017-09-06T02:27:57.098Z,0
2017-09-06T02:29:06.060Z,0
2017-09-06T02:30:14.712Z,0
2017-09-06T02:31:23.376Z,0
2017-09-06T02:32:32.031Z,0
2017-09-06T02:33:41.311Z,0
2017-09-06T02:34:50.629Z,0
2017-09-06T02:35:59.455Z,0
2017-09-06T02:37:08.736Z,0
2017-09-06T02:38:17.707Z,0
2017-09-06T02:39:26.669Z,0
2017-09-06T02:40:35.978Z,0
2017-09-06T02:41:44.967Z,0
2017-09-06T02:42:54.246Z,0
2017-09-06T02:44:03.224Z,0
2017-09-06T02:45:13.183Z,0
2017-09-06T02:46:22.460Z,0
2017-09-06T02:47:31.135Z,0
2017-09-06T02:48:40.110Z,0
2017-09-06T02:49:49.407Z,0
2017-09-06T02:50:58.720Z,0
2017-09-06T02:52:07.691Z,0
2017-09-06T02:53:16.653Z,0
2017-09-06T02:54:25.626Z,0
2017-09-06T02:55:34.598Z,0
2017-09-06T02:56:43.568Z,0
2017-09-06T02:57:53.180Z,0
2017-09-06T02:59:02.470Z,0
2017-09-06T03:00:11.120Z,0
2017-09-06T03:01:20.391Z,0
2017-09-06T03:02:29.054Z,0
2017-09-06T03:03:38.356Z,0
2017-09-06T03:04:47.965Z,0
2017-09-06T03:05:56.942Z,0
2017-09-06T03:07:05.938Z,0
2017-09-06T03:08:14.649Z,0
2017-09-06T03:09:23.297Z,0
2017-09-06T03:10:32.902Z,0
2017-09-06T03:11:42.187Z,0
2017-09-06T03:12:51.483Z,0
2017-09-06T03:14:00.458Z,0
2017-09-06T03:15:09.437Z,0
2017-09-06T03:16:19.038Z,0
2017-09-06T03:17:28.625Z,0
2017-09-06T03:18:37.912Z,0
2017-09-06T03:19:47.507Z,0
2017-09-06T03:20:56.784Z,0
2017-09-06T03:22:06.085Z,0
2017-09-06T03:23:15.044Z,0
2017-09-06T03:24:24.640Z,0
2017-09-06T03:25:33.911Z,0
2017-09-06T03:26:42.881Z,0
2017-09-06T03:27:51.999Z,0
2017-09-06T03:29:00.717Z,0
2017-09-06T03:30:10.647Z,0
2017-09-06T03:31:19.618Z,0
2017-09-06T03:32:28.275Z,0
2017-09-06T03:33:37.558Z,0
2017-09-06T03:34:46.212Z,0
2017-09-06T03:35:55.814Z,0
2017-09-06T03:37:04.780Z,0
2017-09-06T03:38:13.438Z,0
2017-09-06T03:39:23.199Z,0
2017-09-06T03:40:32.478Z,0
2017-09-06T03:41:41.448Z,0
2017-09-06T03:42:51.037Z,0
2017-09-06T03:44:00.307Z,0
2017-09-06T03:45:10.535Z,0
2017-09-06T03:46:20.132Z,0
2017-09-06T03:47:28.782Z,0
2017-09-06T03:48:37.437Z,0
2017-09-06T03:49:46.397Z,0
2017-09-06T03:50:55.372Z,0
2017-09-06T03:52:04.701Z,0
2017-09-06T03:53:13.670Z,0
2017-09-06T03:54:22.326Z,0
2017-09-06T03:55:31.287Z,0
2017-09-06T03:56:40.258Z,0
2017-09-06T03:57:48.924Z,0
2017-09-06T03:58:57.914Z,0
2017-09-06T04:00:07.187Z,0
2017-09-06T04:01:15.839Z,0
2017-09-06T04:02:25.451Z,0
2017-09-06T04:03:34.432Z,0
2017-09-06T04:04:43.393Z,0
2017-09-06T04:05:52.679Z,0
2017-09-06T04:07:01.653Z,0
2017-09-06T04:08:10.983Z,0
2017-09-06T04:09:19.970Z,0
2017-09-06T04:10:29.247Z,0
2017-09-06T04:11:38.539Z,0
2017-09-06T04:12:47.510Z,0
2017-09-06T04:13:56.488Z,0
2017-09-06T04:15:05.781Z,0
2017-09-06T04:16:15.359Z,0
2017-09-06T04:17:24.017Z,0
2017-09-06T04:18:32.999Z,0
2017-09-06T04:19:41.965Z,0
2017-09-06T04:20:51.612Z,0
2017-09-06T04:22:00.888Z,0
2017-09-06T04:23:10.485Z,0
2017-09-06T04:24:19.144Z,0
2017-09-06T04:25:28.752Z,0
2017-09-06T04:26:38.032Z,0
2017-09-06T04:27:47.319Z,0
2017-09-06T04:28:56.276Z,0
2017-09-06T04:30:04.920Z,0
2017-09-06T04:31:14.210Z,0
2017-09-06T04:32:22.854Z,0
2017-09-06T04:33:31.818Z,0
2017-09-06T04:34:40.784Z,0
2017-09-06T04:35:49.746Z,0
2017-09-06T04:36:59.033Z,0
2017-09-06T04:38:08.003Z,0
2017-09-06T04:39:17.294Z,0
2017-09-06T04:40:26.571Z,0
2017-09-06T04:41:35.213Z,0
2017-09-06T04:42:44.173Z,0
2017-09-06T04:43:53.474Z,0
2017-09-06T04:45:02.982Z,0
2017-09-06T04:46:12.249Z,0
2017-09-06T04:47:21.855Z,0
2017-09-06T04:48:31.149Z,0
2017-09-06T04:49:39.794Z,0
2017-09-06T04:50:49.075Z,0
2017-09-06T04:51:58.372Z,0
2017-09-06T04:53:07.018Z,0
2017-09-06T04:54:15.979Z,0
2017-09-06T04:55:25.888Z,0
2017-09-06T04:56:34.541Z,0
2017-09-06T04:57:43.499Z,0
2017-09-06T04:58:52.148Z,0
2017-09-06T05:00:01.122Z,0
2017-09-06T05:01:10.406Z,0
2017-09-06T05:02:19.061Z,0
2017-09-06T05:03:28.350Z,0
2017-09-06T05:04:36.994Z,0
2017-09-06T05:05:45.968Z,0
2017-09-06T05:06:54.635Z,0
2017-09-06T05:08:03.614Z,0
2017-09-06T05:09:12.588Z,0
2017-09-06T05:10:21.870Z,0
2017-09-06T05:11:30.525Z,0
2017-09-06T05:12:39.849Z,0
2017-09-06T05:13:48.821Z,0
2017-09-06T05:14:57.804Z,0
2017-09-06T05:16:07.099Z,0
2017-09-06T05:17:16.380Z,0
2017-09-06T05:18:25.163Z,0
2017-09-06T05:19:34.443Z,0
2017-09-06T05:20:43.725Z,0
2017-09-06T05:21:52.706Z,0
2017-09-06T05:23:01.660Z,0
2017-09-06T05:24:11.570Z,0
2017-09-06T05:25:20.548Z,0
2017-09-06T05:26:29.525Z,0
2017-09-06T05:27:38.503Z,0
2017-09-06T05:28:47.156Z,0
2017-09-06T05:29:56.142Z,0
2017-09-06T05:31:06.120Z,0
2017-09-06T05:32:15.097Z,0
2017-09-06T05:33:24.066Z,0
2017-09-06T05:34:33.053Z,0
2017-09-06T05:35:42.034Z,0
2017-09-06T05:36:51.001Z,0
2017-09-06T05:38:00.003Z,0
2017-09-06T05:39:09.657Z,0
2017-09-06T05:40:18.657Z,0
2017-09-06T05:41:27.938Z,5
2017-09-06T05:42:36.956Z,5
2017-09-06T05:43:45.927Z,5
2017-09-06T05:44:55.206Z,0
2017-09-06T05:46:04.219Z,0
2017-09-06T05:47:13.518Z,0
2017-09-06T05:48:22.509Z,0
2017-09-06T05:49:31.179Z,0
2017-09-06T05:50:40.468Z,0
2017-09-06T05:51:49.274Z,0
2017-09-06T05:52:58.574Z,0
2017-09-06T05:54:07.886Z,0
2017-09-06T05:55:16.882Z,0
2017-09-06T05:56:25.869Z,0
2017-09-06T05:57:34.860Z,0
2017-09-06T05:58:44.158Z,0
2017-09-06T05:59:52.865Z,0
2017-09-06T06:01:02.800Z,0
2017-09-06T06:02:11.460Z,0
2017-09-06T06:03:20.133Z,0
2017-09-06T06:04:29.119Z,0
2017-09-06T06:05:38.426Z,0
2017-09-06T06:06:48.026Z,5
2017-09-06T06:07:57.637Z,5
2017-09-06T06:09:06.290Z,5
2017-09-06T06:10:15.286Z,0
2017-09-06T06:11:24.578Z,5
2017-09-06T06:12:33.560Z,5
2017-09-06T06:13:42.837Z,5
2017-09-06T06:14:52.407Z,5
2017-09-06T06:16:01.798Z,5
2017-09-06T06:17:10.756Z,5
2017-09-06T06:18:19.720Z,5
2017-09-06T06:19:29.006Z,5
2017-09-06T06:20:38.597Z,5
2017-09-06T06:21:47.578Z,5
2017-09-06T06:22:56.855Z,5
2017-09-06T06:24:05.529Z,5
2017-09-06T06:25:15.144Z,5
2017-09-06T06:26:24.427Z,5
2017-09-06T06:27:33.416Z,5
2017-09-06T06:28:42.703Z,5
2017-09-06T06:29:51.376Z,5
2017-09-06T06:31:00.342Z,5
2017-09-06T06:32:09.001Z,5
2017-09-06T06:33:18.004Z,5
2017-09-06T06:34:26.648Z,5
2017-09-06T06:35:35.301Z,5
2017-09-06T06:36:43.947Z,0
2017-09-06T06:37:53.550Z,5
2017-09-06T06:39:02.512Z,5
2017-09-06T06:40:11.794Z,5
2017-09-06T06:41:20.759Z,5
2017-09-06T06:42:29.737Z,5
2017-09-06T06:43:39.007Z,5
2017-09-06T06:44:48.278Z,5
2017-09-06T06:45:57.883Z,10
2017-09-06T06:47:07.164Z,10
2017-09-06T06:48:15.817Z,15
2017-09-06T06:49:25.096Z,15
2017-09-06T06:50:34.717Z,15
2017-09-06T06:51:44.057Z,10
2017-09-06T06:52:52.709Z,10
2017-09-06T06:54:01.682Z,10
2017-09-06T06:55:10.340Z,5
2017-09-06T06:56:19.313Z,5
2017-09-06T06:57:28.272Z,5
2017-09-06T06:58:36.949Z,5
2017-09-06T06:59:45.912Z,5
2017-09-06T07:00:54.560Z,5
2017-09-06T07:02:03.219Z,5
2017-09-06T07:03:12.190Z,5
2017-09-06T07:04:21.170Z,5
2017-09-06T07:05:30.148Z,5
2017-09-06T07:06:39.434Z,5
2017-09-06T07:07:48.730Z,5
2017-09-06T07:08:57.722Z,5
2017-09-06T07:10:06.681Z,5
2017-09-06T07:11:16.276Z,5
2017-09-06T07:12:25.288Z,5
2017-09-06T07:13:34.880Z,5
2017-09-06T07:14:43.834Z,5
2017-09-06T07:15:52.878Z,0
2017-09-06T07:17:01.813Z,0
2017-09-06T07:18:10.785Z,0
2017-09-06T07:19:20.062Z,5
2017-09-06T07:20:28.727Z,5
2017-09-06T07:21:37.691Z,5
2017-09-06T07:22:46.355Z,5
2017-09-06T07:23:55.334Z,5
2017-09-06T07:25:04.290Z,5
2017-09-06T07:26:13.577Z,5
2017-09-06T07:27:22.562Z,5
2017-09-06T07:28:31.902Z,5
2017-09-06T07:29:40.572Z,5
2017-09-06T07:30:49.870Z,5
2017-09-06T07:31:58.839Z,5
2017-09-06T07:33:08.123Z,5
2017-09-06T07:34:17.080Z,5
2017-09-06T07:35:26.365Z,10
2017-09-06T07:36:35.792Z,10
2017-09-06T07:37:44.441Z,10
2017-09-06T07:38:53.738Z,10
2017-09-06T07:40:02.703Z,10
2017-09-06T07:41:11.737Z,10
2017-09-06T07:42:20.778Z,10
2017-09-06T07:43:29.436Z,10
2017-09-06T07:44:38.714Z,10
2017-09-06T07:45:47.683Z,5
2017-09-06T07:46:56.981Z,5
2017-09-06T07:48:06.592Z,10
2017-09-06T07:49:15.877Z,10
2017-09-06T07:50:24.849Z,15
2017-09-06T07:51:33.830Z,15
2017-09-06T07:52:42.808Z,15
2017-09-06T07:53:51.782Z,15
2017-09-06T07:55:01.069Z,15
2017-09-06T07:56:10.054Z,15
2017-09-06T07:57:19.021Z,20
2017-09-06T07:58:28.323Z,20
2017-09-06T07:59:37.936Z,25
2017-09-06T08:00:46.910Z,30
2017-09-06T08:01:56.200Z,30
2017-09-06T08:03:05.162Z,30
2017-09-06T08:04:14.439Z,40
2017-09-06T08:05:23.414Z,35
2017-09-06T08:06:32.710Z,35
2017-09-06T08:07:41.373Z,30
2017-09-06T08:08:50.714Z,20
2017-09-06T08:10:00.315Z,15
2017-09-06T08:11:09.594Z,10
2017-09-06T08:12:18.562Z,5
2017-09-06T08:13:27.528Z,10
2017-09-06T08:14:36.491Z,5
2017-09-06T08:15:45.445Z,5
2017-09-06T08:16:54.785Z,15
2017-09-06T08:18:03.767Z,10
2017-09-06T08:19:12.744Z,5
2017-09-06T08:20:21.718Z,10
2017-09-06T08:21:31.005Z,5
2017-09-06T08:22:40.608Z,5
2017-09-06T08:23:49.897Z,5
2017-09-06T08:24:59.499Z,5
2017-09-06T08:26:08.479Z,5
2017-09-06T08:27:17.154Z,5
2017-09-06T08:28:26.446Z,5
2017-09-06T08:29:35.731Z,10
2017-09-06T08:30:45.014Z,15
2017-09-06T08:31:53.982Z,25
2017-09-06T08:33:02.963Z,35
2017-09-06T08:34:11.964Z,55
2017-09-06T08:35:21.264Z,70
2017-09-06T08:36:29.914Z,65
2017-09-06T08:37:38.574Z,50
2017-09-06T08:38:47.240Z,55
2017-09-06T08:39:56.210Z,55
2017-09-06T08:41:05.177Z,60
2017-09-06T08:42:13.869Z,65
2017-09-06T08:43:22.846Z,65
2017-09-06T08:44:32.157Z,70
2017-09-06T08:45:41.454Z,70
2017-09-06T08:46:50.423Z,75
2017-09-06T08:47:59.095Z,65
2017-09-06T08:49:08.064Z,50
2017-09-06T08:50:17.345Z,45
2017-09-06T08:51:26.332Z,40
2017-09-06T08:52:35.042Z,40
2017-09-06T08:53:43.706Z,35
2017-09-06T08:54:52.676Z,30
2017-09-06T08:56:01.981Z,30
2017-09-06T08:57:10.959Z,30
2017-09-06T08:58:19.961Z,30
2017-09-06T08:59:28.950Z,30
2017-09-06T09:00:37.628Z,30
2017-09-06T09:01:46.913Z,30
2017-09-06T09:02:55.902Z,25
2017-09-06T09:04:04.890Z,30
2017-09-06T09:05:13.548Z,20
2017-09-06T09:06:22.854Z,20
2017-09-06T09:07:32.458Z,15
2017-09-06T09:08:42.073Z,20
2017-09-06T09:09:51.721Z,25
2017-09-06T09:11:00.369Z,20
2017-09-06T09:12:09.664Z,15
2017-09-06T09:13:19.257Z,15
2017-09-06T09:14:28.220Z,15
2017-09-06T09:15:37.244Z,15
2017-09-06T09:16:45.901Z,15
2017-09-06T09:17:54.877Z,15
2017-09-06T09:19:03.852Z,15
2017-09-06T09:20:13.174Z,15
2017-09-06T09:21:22.138Z,15
2017-09-06T09:22:31.426Z,15
2017-09-06T09:23:40.408Z,15
2017-09-06T09:24:49.404Z,20
2017-09-06T09:25:58.073Z,25
2017-09-06T09:27:07.375Z,30
2017-09-06T09:28:16.347Z,40
2017-09-06T09:29:25.311Z,40
2017-09-06T09:30:34.595Z,25
2017-09-06T09:31:43.885Z,20
2017-09-06T09:32:52.872Z,15
2017-09-06T09:34:02.154Z,10
2017-09-06T09:35:11.455Z,10
2017-09-06T09:36:20.752Z,10
2017-09-06T09:37:30.062Z,10
2017-09-06T09:38:39.402Z,15
2017-09-06T09:39:48.680Z,15
2017-09-06T09:40:57.666Z,15
2017-09-06T09:42:06.648Z,20
2017-09-06T09:43:15.618Z,25
2017-09-06T09:44:24.919Z,25
2017-09-06T09:45:33.588Z,20
2017-09-06T09:46:42.881Z,20
2017-09-06T09:47:51.864Z,15
2017-09-06T09:49:00.837Z,15
2017-09-06T09:50:09.825Z,15
2017-09-06T09:51:18.497Z,20
2017-09-06T09:52:27.484Z,20
2017-09-06T09:53:37.091Z,20
2017-09-06T09:54:45.743Z,15
2017-09-06T09:55:54.429Z,15
2017-09-06T09:57:04.043Z,20
2017-09-06T09:58:12.701Z,20
2017-09-06T10:00:31.009Z,20
2017-09-06T10:01:39.988Z,25
2017-09-06T10:02:49.277Z,25
2017-09-06T10:03:58.248Z,25
2017-09-06T10:05:07.247Z,25
2017-09-06T10:06:16.543Z,25
2017-09-06T10:07:26.169Z,30
2017-09-06T10:08:35.467Z,30
2017-09-06T10:09:44.434Z,35
2017-09-06T10:10:53.711Z,40
2017-09-06T10:12:03.011Z,45
2017-09-06T10:13:12.305Z,50
2017-09-06T10:14:21.911Z,50
2017-09-06T10:15:30.896Z,35
2017-09-06T10:16:39.884Z,30
2017-09-06T10:17:48.862Z,30
2017-09-06T10:18:57.844Z,35
2017-09-06T10:20:06.880Z,35
2017-09-06T10:21:16.185Z,30
2017-09-06T10:22:25.487Z,30
2017-09-06T10:23:34.159Z,30
2017-09-06T10:24:43.446Z,30
2017-09-06T10:25:52.406Z,40
2017-09-06T10:27:01.378Z,50
2017-09-06T10:28:10.345Z,60
2017-09-06T10:29:19.313Z,60
2017-09-06T10:30:28.312Z,60
2017-09-06T10:31:37.286Z,60
2017-09-06T10:32:47.195Z,65
2017-09-06T10:33:57.125Z,50
2017-09-06T10:35:06.100Z,30
2017-09-06T10:36:14.754Z,20
2017-09-06T10:37:23.723Z,20
2017-09-06T10:38:32.998Z,20
2017-09-06T10:39:42.299Z,20
2017-09-06T10:40:51.274Z,20
2017-09-06T10:42:00.258Z,20
2017-09-06T10:43:09.862Z,15
2017-09-06T10:44:18.827Z,15
2017-09-06T10:45:28.125Z,20
2017-09-06T10:46:37.114Z,20
2017-09-06T10:47:46.104Z,30
2017-09-06T10:48:54.829Z,35
2017-09-06T10:50:03.505Z,40
2017-09-06T10:51:12.813Z,40
2017-09-06T10:52:21.790Z,40
2017-09-06T10:53:31.076Z,50
2017-09-06T10:54:40.362Z,55
2017-09-06T10:55:49.333Z,55
2017-09-06T10:56:58.636Z,50
2017-09-06T10:58:07.299Z,50
2017-09-06T10:59:15.954Z,45
2017-09-06T11:00:24.620Z,35
2017-09-06T11:01:33.915Z,35
2017-09-06T11:02:42.583Z,30
2017-09-06T11:03:51.552Z,25
2017-09-06T11:05:00.515Z,25
2017-09-06T11:06:09.487Z,25
2017-09-06T11:07:18.461Z,25
2017-09-06T11:08:27.437Z,25
2017-09-06T11:09:36.736Z,30
2017-09-06T11:10:45.704Z,35
2017-09-06T11:11:54.371Z,40
2017-09-06T11:13:03.655Z,45
2017-09-06T11:14:12.636Z,45
2017-09-06T11:15:21.314Z,40
2017-09-06T11:16:30.612Z,35
2017-09-06T11:17:39.924Z,35
2017-09-06T11:18:49.219Z,45
2017-09-06T11:19:58.442Z,50
2017-09-06T11:21:08.073Z,55
2017-09-06T11:22:16.731Z,55
2017-09-06T11:23:26.029Z,55
2017-09-06T11:24:35.016Z,55
2017-09-06T11:25:44.632Z,45
2017-09-06T11:26:53.604Z,45
2017-09-06T11:28:02.302Z,50
2017-09-06T11:29:10.964Z,45
2017-09-06T11:30:20.791Z,35
2017-09-06T11:31:29.769Z,25
2017-09-06T11:32:39.064Z,20
2017-09-06T11:33:48.389Z,30
2017-09-06T11:34:57.681Z,25
2017-09-06T11:36:06.983Z,25
2017-09-06T11:37:16.022Z,25
2017-09-06T11:38:24.674Z,20
2017-09-06T11:39:33.683Z,15
2017-09-06T11:40:42.661Z,25
2017-09-06T11:41:51.666Z,45
2017-09-06T11:43:00.966Z,45
2017-09-06T11:44:09.634Z,45
2017-09-06T11:45:18.296Z,45
2017-09-06T11:46:27.259Z,45
2017-09-06T11:47:36.241Z,45
2017-09-06T11:48:45.222Z,50
2017-09-06T11:49:53.886Z,50
2017-09-06T11:51:02.544Z,45
2017-09-06T11:52:11.517Z,45
2017-09-06T11:53:20.798Z,45
2017-09-06T11:54:29.770Z,40
2017-09-06T11:55:38.446Z,40
2017-09-06T11:56:47.735Z,40
2017-09-06T11:57:57.022Z,35
2017-09-06T11:59:06.009Z,25
2017-09-06T12:00:15.007Z,20
2017-09-06T12:01:23.673Z,20
2017-09-06T12:02:32.672Z,25
2017-09-06T12:03:41.734Z,35
2017-09-06T12:04:51.031Z,40
2017-09-06T12:06:00.003Z,45
2017-09-06T12:07:08.660Z,45
2017-09-06T12:08:17.629Z,40
2017-09-06T12:09:26.932Z,25
2017-09-06T12:10:35.906Z,15
2017-09-06T12:11:45.823Z,15
2017-09-06T12:12:55.114Z,10
2017-09-06T12:14:04.420Z,15
2017-09-06T12:15:13.090Z,25
2017-09-06T12:16:22.072Z,35
2017-09-06T12:17:31.044Z,40
2017-09-06T12:18:40.342Z,40
2017-09-06T12:19:48.999Z,30
2017-09-06T12:20:57.971Z,35
2017-09-06T12:22:06.950Z,35
2017-09-06T12:23:15.947Z,45
2017-09-06T12:24:25.274Z,45
2017-09-06T12:25:33.942Z,45
2017-09-06T12:26:43.232Z,50
2017-09-06T12:27:52.213Z,50
2017-09-06T12:29:01.494Z,50
2017-09-06T12:30:11.186Z,50
2017-09-06T12:31:19.850Z,50
2017-09-06T12:32:29.129Z,50
2017-09-06T12:33:38.445Z,50
2017-09-06T12:34:47.061Z,45
2017-09-06T12:35:55.719Z,40
2017-09-06T12:37:04.685Z,35
2017-09-06T12:38:13.648Z,30
2017-09-06T12:39:22.320Z,25
2017-09-06T12:40:30.969Z,20
2017-09-06T12:41:40.260Z,20
2017-09-06T12:42:48.931Z,25
2017-09-06T12:43:58.219Z,30
2017-09-06T12:45:07.506Z,40
2017-09-06T12:46:17.138Z,40
2017-09-06T12:47:26.129Z,45
2017-09-06T12:48:35.415Z,45
2017-09-06T12:49:44.403Z,45
2017-09-06T12:50:53.592Z,45
2017-09-06T12:52:03.197Z,45
2017-09-06T12:53:12.802Z,45
2017-09-06T12:54:21.780Z,45
2017-09-06T12:55:30.748Z,40
2017-09-06T12:56:40.045Z,40
2017-09-06T12:57:49.651Z,45
2017-09-06T12:58:58.941Z,40
2017-09-06T13:00:08.584Z,35
2017-09-06T13:01:17.880Z,40
2017-09-06T13:02:26.566Z,40
2017-09-06T13:03:35.841Z,35
2017-09-06T13:04:44.811Z,35
2017-09-06T13:05:54.421Z,40
2017-09-06T13:07:03.710Z,35
2017-09-06T13:08:12.677Z,35
2017-09-06T13:09:21.343Z,35
2017-09-06T13:10:30.326Z,30
2017-09-06T13:11:39.295Z,25
2017-09-06T13:12:47.950Z,25
2017-09-06T13:13:56.926Z,15
2017-09-06T13:15:05.575Z,15
2017-09-06T13:16:14.691Z,15
2017-09-06T13:17:23.357Z,15
2017-09-06T13:18:32.097Z,20
2017-09-06T13:19:41.066Z,20
2017-09-06T13:20:50.032Z,20
2017-09-06T13:21:59.013Z,20
2017-09-06T13:23:07.668Z,20
2017-09-06T13:24:16.944Z,25
2017-09-06T13:25:26.243Z,30
2017-09-06T13:26:35.841Z,35
2017-09-06T13:27:45.163Z,35
2017-09-06T13:28:54.470Z,35
2017-09-06T13:30:03.760Z,35
2017-09-06T13:31:13.047Z,40
2017-09-06T13:32:22.356Z,40
2017-09-06T13:33:31.665Z,40
2017-09-06T13:34:41.587Z,40
2017-09-06T13:35:50.255Z,35
2017-09-06T13:36:59.243Z,35
2017-09-06T13:38:08.850Z,35
2017-09-06T13:39:17.838Z,35
2017-09-06T13:40:27.451Z,40
2017-09-06T13:41:36.430Z,40
2017-09-06T13:42:45.081Z,35
2017-09-06T13:43:54.065Z,40
2017-09-06T13:45:03.370Z,40
2017-09-06T13:46:12.964Z,40
2017-09-06T13:47:21.950Z,40
2017-09-06T13:48:31.242Z,40
2017-09-06T13:49:40.225Z,40
2017-09-06T13:50:49.536Z,40
2017-09-06T13:51:58.842Z,40
2017-09-06T13:53:07.518Z,40
2017-09-06T13:54:16.818Z,40
2017-09-06T13:55:25.776Z,35
2017-09-06T13:56:35.390Z,30
2017-09-06T13:57:44.368Z,30
2017-09-06T13:58:53.366Z,25
2017-09-06T14:00:02.349Z,25
2017-09-06T14:01:11.953Z,20
2017-09-06T14:02:21.565Z,20
2017-09-06T14:03:30.546Z,25
2017-09-06T14:04:39.524Z,25
2017-09-06T14:05:48.514Z,30
2017-09-06T14:06:57.809Z,30
2017-09-06T14:08:06.494Z,30
2017-09-06T14:09:15.149Z,30
2017-09-06T14:10:24.123Z,25
2017-09-06T14:11:32.778Z,25
2017-09-06T14:12:42.385Z,30
2017-09-06T14:13:51.345Z,25
2017-09-06T14:15:00.644Z,25
2017-09-06T14:16:09.613Z,25
2017-09-06T14:17:18.278Z,25
2017-09-06T14:18:27.566Z,25
2017-09-06T14:19:36.530Z,30
2017-09-06T14:20:45.499Z,35
2017-09-06T14:21:54.463Z,35
2017-09-06T14:23:03.144Z,30
2017-09-06T14:24:11.807Z,30
2017-09-06T14:25:21.100Z,30
2017-09-06T14:26:30.068Z,30
2017-09-06T14:27:39.977Z,30
2017-09-06T14:28:48.953Z,30
2017-09-06T14:29:58.250Z,30
2017-09-06T14:31:07.834Z,25
2017-09-06T14:32:16.830Z,25
2017-09-06T14:33:25.811Z,25
2017-09-06T14:34:34.468Z,20
2017-09-06T14:35:43.451Z,20
2017-09-06T14:36:52.736Z,25
2017-09-06T14:38:01.717Z,25
2017-09-06T14:39:10.702Z,25
2017-09-06T14:40:19.980Z,25
2017-09-06T14:41:28.661Z,25
2017-09-06T14:42:38.111Z,20
2017-09-06T14:43:47.115Z,20
2017-09-06T14:44:56.414Z,15
2017-09-06T14:46:05.094Z,15
2017-09-06T14:47:13.753Z,10
2017-09-06T14:48:23.043Z,10
2017-09-06T14:49:32.328Z,10
2017-09-06T14:50:41.617Z,15
2017-09-06T14:51:50.283Z,15
2017-09-06T14:52:59.582Z,15
2017-09-06T14:54:08.867Z,20
2017-09-06T14:55:17.844Z,20
2017-09-06T14:56:27.167Z,20
2017-09-06T14:57:35.841Z,25
2017-09-06T14:58:45.143Z,25
2017-09-06T14:59:54.144Z,25
2017-09-06T15:01:03.124Z,25
2017-09-06T15:02:12.734Z,25
2017-09-06T15:03:21.398Z,25
2017-09-06T15:04:30.370Z,25
2017-09-06T15:05:40.605Z,20
2017-09-06T15:06:49.275Z,20
2017-09-06T15:07:58.264Z,20
2017-09-06T15:09:07.579Z,20
2017-09-06T15:10:16.899Z,20
2017-09-06T15:11:26.207Z,20
2017-09-06T15:12:35.823Z,20
2017-09-06T15:13:44.793Z,20
2017-09-06T15:14:53.796Z,20
2017-09-06T15:16:02.772Z,20
2017-09-06T15:17:11.754Z,15
2017-09-06T15:18:20.431Z,15
2017-09-06T15:19:30.052Z,15
2017-09-06T15:20:39.039Z,15
2017-09-06T15:21:48.377Z,15
2017-09-06T15:22:57.663Z,15
2017-09-06T15:24:06.943Z,15
2017-09-06T15:25:16.259Z,15
2017-09-06T15:26:25.576Z,15
2017-09-06T15:27:34.549Z,15
2017-09-06T15:28:43.246Z,15
2017-09-06T15:29:52.851Z,15
2017-09-06T15:31:01.509Z,15
2017-09-06T15:32:10.833Z,15
2017-09-06T15:33:20.145Z,15
2017-09-06T15:34:29.116Z,15
2017-09-06T15:35:38.419Z,15
2017-09-06T15:36:47.451Z,15
2017-09-06T15:37:56.752Z,15
2017-09-06T15:39:05.750Z,15
2017-09-06T15:40:14.721Z,15
2017-09-06T15:41:23.694Z,15
2017-09-06T15:42:32.668Z,15
2017-09-06T15:43:41.343Z,15
2017-09-06T15:44:50.618Z,15
2017-09-06T15:45:59.290Z,15
2017-09-06T15:47:08.897Z,15
2017-09-06T15:48:18.188Z,15
2017-09-06T15:49:26.850Z,15
2017-09-06T15:50:35.815Z,15
2017-09-06T15:51:44.797Z,15
2017-09-06T15:52:54.080Z,15
2017-09-06T15:54:03.372Z,15
2017-09-06T15:55:12.664Z,15
2017-09-06T15:56:21.641Z,15
2017-09-06T15:57:30.307Z,15
2017-09-06T15:58:39.601Z,15
2017-09-06T15:59:48.566Z,15
2017-09-06T16:00:57.540Z,15
2017-09-06T16:02:07.134Z,15
2017-09-06T16:03:16.418Z,15
2017-09-06T16:04:25.381Z,15
2017-09-06T16:05:34.340Z,15
2017-09-06T16:06:42.982Z,15
2017-09-06T16:07:51.632Z,15
2017-09-06T16:09:00.587Z,15
2017-09-06T16:10:09.860Z,15
2017-09-06T16:11:18.524Z,15
2017-09-06T16:12:27.481Z,15
2017-09-06T16:13:36.765Z,15
2017-09-06T16:14:46.064Z,15
2017-09-06T16:15:55.046Z,15
2017-09-06T16:17:03.692Z,10
2017-09-06T16:18:13.294Z,10
2017-09-06T16:19:22.264Z,10
2017-09-06T16:20:31.225Z,10
2017-09-06T16:21:40.517Z,10
2017-09-06T16:22:49.482Z,10
2017-09-06T16:23:58.130Z,10
2017-09-06T16:25:07.138Z,10
2017-09-06T16:26:16.101Z,10
2017-09-06T16:27:25.729Z,5
2017-09-06T16:28:35.018Z,5
2017-09-06T16:29:44.945Z,5
2017-09-06T16:30:53.918Z,5
2017-09-06T16:32:03.207Z,5
2017-09-06T16:33:12.483Z,5
2017-09-06T16:34:21.152Z,10
2017-09-06T16:35:30.429Z,10
2017-09-06T16:36:39.080Z,10
2017-09-06T16:37:47.754Z,10
2017-09-06T16:38:56.721Z,5
2017-09-06T16:40:05.697Z,5
2017-09-06T16:41:14.990Z,5
2017-09-06T16:42:23.643Z,5
2017-09-06T16:43:32.915Z,5